createdAt,value
2023-01-22T00:01:46.583Z,12.35
2023-01-22T00:06:04.150Z,11.63
2023-01-22T00:10:21.218Z,12.03
2023-01-22T00:14:38.496Z,11.65
2023-01-22T00:18:55.605Z,11.10
2023-01-22T00:23:12.667Z,11.38
2023-01-22T00:27:29.759Z,11.00
2023-01-22T00:31:46.918Z,11.57
2023-01-22T00:36:09.686Z,11.13
2023-01-22T00:40:26.883Z,10.93
2023-01-22T00:44:44.016Z,10.55
2023-01-22T00:49:03.501Z,10.30
2023-01-22T00:53:20.646Z,11.93
2023-01-22T00:57:37.707Z,11.40
2023-01-22T01:01:54.837Z,11.73
2023-01-22T01:06:20.142Z,12.07
2023-01-22T01:10:37.252Z,11.20
2023-01-22T01:14:56.360Z,10.93
2023-01-22T01:19:13.484Z,11.57
2023-01-22T01:23:30.998Z,10.82
2023-01-22T01:27:48.195Z,12.03
2023-01-22T01:32:05.314Z,12.60
2023-01-22T01:36:46.797Z,12.07
2023-01-22T01:41:01.829Z,12.50
2023-01-22T01:45:32.141Z,12.82
2023-01-22T01:49:52.642Z,13.88
2023-01-22T01:54:11.402Z,14.32
2023-01-22T01:58:31.848Z,13.13
2023-01-22T02:02:49.226Z,14.80
2023-01-22T02:07:06.791Z,14.77
2023-01-22T02:11:24.849Z,13.80
2023-01-22T02:15:42.803Z,14.43
2023-01-22T02:19:59.838Z,15.68
2023-01-22T02:24:17.260Z,15.93
2023-01-22T02:28:34.340Z,12.90
2023-01-22T02:32:51.531Z,13.80
2023-01-22T02:37:09.128Z,14.07
2023-01-22T02:41:27.083Z,15.00
2023-01-22T02:45:44.268Z,15.18
2023-01-22T02:50:01.605Z,14.32
2023-01-22T02:54:18.789Z,15.20
2023-01-22T02:58:36.250Z,14.40
2023-01-22T03:02:53.324Z,14.47
2023-01-22T03:07:10.392Z,14.52
2023-01-22T03:11:30.263Z,14.95
2023-01-22T03:16:06.283Z,14.80
2023-01-22T03:20:42.207Z,13.75
2023-01-22T03:25:01.257Z,14.00
2023-01-22T03:29:18.432Z,13.98
2023-01-22T03:33:36.437Z,13.43
2023-01-22T03:37:53.558Z,13.68
2023-01-22T03:42:10.613Z,14.60
2023-01-22T03:46:28.075Z,14.35
2023-01-22T03:50:45.135Z,13.13
2023-01-22T03:55:02.235Z,13.15
2023-01-22T03:59:19.381Z,13.25
2023-01-22T04:03:37.108Z,13.07
2023-01-22T04:07:54.163Z,13.60
2023-01-22T04:12:11.233Z,15.18
2023-01-22T04:16:28.438Z,14.52
2023-01-22T04:20:47.615Z,13.95
2023-01-22T04:25:05.095Z,14.15
2023-01-22T04:29:22.158Z,14.27
2023-01-22T04:33:39.326Z,13.65
2023-01-22T04:37:56.910Z,13.57
2023-01-22T04:42:14.026Z,13.93
2023-01-22T04:46:31.588Z,14.18
2023-01-22T04:50:48.732Z,13.20
2023-01-22T04:55:06.564Z,13.57
2023-01-22T04:59:23.651Z,14.40
2023-01-22T05:03:40.804Z,13.00
2023-01-22T05:07:58.046Z,13.48
2023-01-22T05:12:15.256Z,12.40
2023-01-22T05:16:32.481Z,13.38
2023-01-22T05:20:49.578Z,13.13
2023-01-22T05:25:07.165Z,12.73
2023-01-22T05:29:26.052Z,12.90
2023-01-22T05:33:44.253Z,11.50
2023-01-22T05:42:18.321Z,13.65
2023-01-22T05:46:35.522Z,14.10
2023-01-22T05:50:52.702Z,14.95
2023-01-22T05:55:09.926Z,14.80
2023-01-22T05:59:27.154Z,14.25
2023-01-22T06:03:44.577Z,13.85
2023-01-22T06:08:01.733Z,12.53
2023-01-22T06:12:18.799Z,13.98
2023-01-22T06:16:35.889Z,13.82
2023-01-22T06:20:57.583Z,14.27
2023-01-22T06:25:14.694Z,13.95
2023-01-22T06:29:31.966Z,14.43
2023-01-22T06:33:49.080Z,15.05
2023-01-22T06:38:06.314Z,15.25
2023-01-22T06:42:23.439Z,16.20
2023-01-22T06:46:40.645Z,15.43
2023-01-22T06:50:59.001Z,15.77
2023-01-22T06:55:16.075Z,16.95
2023-01-22T06:59:33.200Z,20.02
2023-01-22T07:03:50.396Z,19.83
2023-01-22T07:08:13.107Z,17.60
2023-01-22T07:12:30.271Z,20.23
2023-01-22T07:16:47.324Z,24.02
2023-01-22T07:21:05.856Z,19.55
2023-01-22T07:25:22.937Z,16.98
2023-01-22T07:29:40.850Z,19.00
2023-01-22T07:34:00.798Z,19.35
2023-01-22T07:38:47.576Z,18.92
2023-01-22T07:43:19.951Z,18.48
2023-01-22T07:47:41.432Z,18.17
2023-01-22T07:52:05.009Z,24.98
2023-01-22T07:56:54.395Z,17.88
2023-01-22T08:01:13.802Z,20.80
2023-01-22T08:05:30.928Z,19.23
2023-01-22T08:09:48.080Z,16.92
2023-01-22T08:14:05.142Z,18.38
2023-01-22T08:18:28.261Z,17.08
2023-01-22T08:22:48.809Z,18.02
2023-01-22T08:27:05.840Z,18.98
2023-01-22T08:31:28.388Z,23.70
2023-01-22T08:35:45.744Z,31.90
2023-01-22T08:40:04.344Z,27.42
2023-01-22T08:44:21.423Z,19.70
2023-01-22T08:48:39.670Z,48.53
2023-01-22T08:57:14.636Z,23.83
2023-01-22T09:01:32.473Z,22.17
2023-01-22T09:05:51.004Z,16.02
2023-01-22T09:10:12.177Z,19.15
2023-01-22T09:14:29.516Z,14.90
2023-01-22T09:18:46.585Z,22.63
2023-01-22T09:23:03.634Z,15.02
2023-01-22T09:27:20.720Z,15.75
2023-01-22T09:31:37.872Z,18.00
2023-01-22T09:35:54.953Z,15.68
2023-01-22T09:40:36.345Z,14.40
2023-01-22T09:44:59.721Z,13.23
2023-01-22T09:49:19.957Z,12.73
2023-01-22T09:53:37.080Z,13.68
2023-01-22T09:57:55.970Z,13.57
2023-01-22T10:02:36.404Z,13.65
2023-01-22T10:06:57.711Z,11.70
2023-01-22T10:11:14.811Z,10.88
2023-01-22T10:15:32.915Z,11.13
2023-01-22T10:19:58.488Z,11.80
2023-01-22T10:24:15.678Z,11.48
2023-01-22T10:28:32.860Z,11.77
2023-01-22T10:33:04.269Z,13.98
2023-01-22T10:37:21.353Z,15.18
2023-01-22T10:41:39.307Z,13.25
2023-01-22T10:46:03.265Z,13.98
2023-01-22T10:50:24.311Z,21.08
2023-01-22T10:54:43.954Z,17.63
2023-01-22T10:59:26.662Z,21.33
2023-01-22T11:03:44.293Z,20.80
2023-01-22T11:08:07.654Z,21.27
2023-01-22T11:12:33.166Z,16.85
2023-01-22T11:16:54.277Z,16.52
2023-01-22T11:21:26.850Z,16.67
2023-01-22T11:26:41.552Z,15.43
2023-01-22T11:31:13.873Z,16.65
2023-01-22T11:35:50.866Z,17.92
2023-01-22T11:40:21.955Z,25.17
2023-01-22T11:45:09.053Z,20.65
2023-01-22T11:49:52.904Z,19.67
2023-01-22T11:54:33.112Z,19.52
2023-01-22T11:59:32.721Z,19.15
2023-01-22T12:04:15.902Z,18.27
2023-01-22T12:08:47.762Z,21.77
2023-01-22T12:13:38.327Z,18.67
2023-01-22T12:17:58.491Z,19.80
2023-01-22T12:22:37.449Z,17.63
2023-01-22T12:27:05.397Z,21.08
2023-01-22T12:31:53.895Z,19.83
2023-01-22T12:36:16.454Z,20.73
2023-01-22T12:40:52.601Z,18.67
2023-01-22T12:45:31.805Z,17.95
2023-01-22T12:49:51.514Z,21.30
2023-01-22T12:54:27.341Z,20.17
2023-01-22T12:58:55.454Z,18.45
2023-01-22T13:03:32.871Z,21.92
2023-01-22T13:08:16.311Z,18.65
2023-01-22T13:12:45.384Z,18.77
2023-01-22T13:17:16.764Z,19.67
2023-01-22T13:21:34.365Z,23.00
2023-01-22T13:25:55.905Z,19.93
2023-01-22T13:30:17.969Z,22.23
2023-01-22T13:34:35.292Z,24.48
2023-01-22T13:38:54.903Z,24.35
2023-01-22T13:43:18.233Z,25.58
2023-01-22T13:47:36.011Z,27.88
2023-01-22T13:51:54.145Z,32.47
2023-01-22T14:00:36.645Z,30.40
2023-01-22T14:04:53.841Z,33.17
2023-01-22T14:09:11.115Z,27.77
2023-01-22T14:13:39.891Z,27.67
2023-01-22T14:18:16.111Z,27.15
2023-01-22T14:22:33.227Z,26.00
2023-01-22T14:26:50.325Z,23.20
2023-01-22T14:31:07.601Z,24.33
2023-01-22T14:35:26.579Z,25.85
2023-01-22T14:39:43.718Z,27.02
2023-01-22T14:44:04.006Z,27.00
2023-01-22T14:48:21.343Z,26.55
2023-01-22T14:52:38.468Z,25.67
2023-01-22T14:56:56.451Z,28.02
2023-01-22T15:01:15.996Z,33.20
2023-01-22T15:05:35.486Z,30.05
2023-01-22T15:09:52.835Z,27.73
2023-01-22T15:14:10.191Z,27.70
2023-01-22T15:22:45.727Z,25.38
2023-01-22T15:27:02.978Z,25.73
2023-01-22T15:31:20.258Z,25.98
2023-01-22T15:35:37.432Z,29.20
2023-01-22T15:39:54.527Z,29.50
2023-01-22T15:44:13.467Z,28.27
2023-01-22T15:48:30.607Z,31.08
2023-01-22T15:52:47.812Z,31.13
2023-01-22T15:57:04.880Z,33.22
2023-01-22T16:01:22.441Z,56.67
2023-01-22T16:05:39.570Z,51.93
2023-01-22T16:09:56.668Z,48.85
2023-01-22T16:14:13.789Z,49.38
2023-01-22T16:18:35.296Z,36.63
2023-01-22T16:22:52.787Z,41.95
2023-01-22T16:27:09.989Z,39.57
2023-01-22T16:31:30.527Z,34.80
2023-01-22T16:35:47.933Z,32.75
2023-01-22T16:40:07.463Z,34.08
2023-01-22T16:44:26.419Z,31.08
2023-01-22T16:48:44.109Z,28.60
2023-01-22T16:53:01.341Z,30.63
2023-01-22T16:57:20.104Z,30.20
2023-01-22T17:01:40.870Z,29.75
2023-01-22T17:05:59.362Z,28.45
2023-01-22T17:10:17.271Z,30.38
2023-01-22T17:14:36.375Z,28.85
2023-01-22T17:18:55.132Z,30.30
2023-01-22T17:23:12.425Z,29.63
2023-01-22T17:27:31.583Z,29.20
2023-01-22T17:31:49.025Z,31.00
2023-01-22T17:36:06.878Z,27.20
2023-01-22T17:40:25.179Z,26.20
2023-01-22T17:49:01.128Z,20.80
2023-01-22T17:53:18.205Z,22.38
2023-01-22T17:57:35.271Z,24.70
2023-01-22T18:01:52.415Z,23.30
2023-01-22T18:06:10.499Z,22.02
2023-01-22T18:10:28.214Z,20.00
2023-01-22T18:14:45.317Z,23.73
2023-01-22T18:19:05.412Z,25.50
2023-01-22T18:23:22.754Z,20.45
2023-01-22T18:27:39.843Z,21.80
2023-01-22T18:31:57.123Z,18.98
2023-01-22T18:36:16.969Z,18.13
2023-01-22T18:40:34.054Z,19.92
2023-01-22T18:44:51.115Z,20.13
2023-01-22T18:49:19.060Z,21.38
2023-01-22T18:53:37.393Z,20.80
2023-01-22T18:57:56.956Z,19.95
2023-01-22T19:02:17.356Z,20.48
2023-01-22T19:06:37.374Z,22.25
2023-01-22T19:10:54.503Z,19.70
2023-01-22T19:15:12.719Z,16.13
2023-01-22T19:23:53.189Z,17.80
2023-01-22T19:28:10.286Z,18.45
2023-01-22T19:32:28.630Z,18.40
2023-01-22T19:41:03.749Z,18.77
2023-01-22T19:49:38.387Z,18.13
2023-01-22T19:53:55.437Z,18.75
2023-01-22T19:58:12.492Z,18.20
2023-01-22T20:02:29.587Z,18.95
2023-01-22T20:06:50.839Z,18.08
2023-01-22T20:11:09.976Z,19.75
2023-01-22T20:15:27.044Z,19.75
2023-01-22T20:19:44.179Z,17.48
2023-01-22T20:24:01.326Z,17.63
2023-01-22T20:28:19.528Z,16.30
2023-01-22T20:36:53.563Z,19.40
2023-01-22T20:41:10.923Z,18.75
2023-01-22T20:45:28.055Z,17.52
2023-01-22T20:49:45.220Z,18.23
2023-01-22T20:54:02.949Z,17.27
2023-01-22T20:58:20.089Z,17.38
2023-01-22T21:02:37.197Z,17.83
2023-01-22T21:06:54.439Z,17.77
2023-01-22T21:11:14.004Z,15.73
2023-01-22T21:15:33.479Z,17.17
2023-01-22T21:19:51.615Z,15.88
2023-01-22T21:24:08.770Z,15.50
2023-01-22T21:28:25.870Z,15.40
2023-01-22T21:32:43.145Z,16.15
2023-01-22T21:37:00.299Z,14.82
2023-01-22T21:41:18.554Z,16.33
2023-01-22T21:50:14.507Z,13.95
2023-01-22T21:54:37.253Z,15.68
2023-01-22T21:58:55.963Z,14.65
2023-01-22T22:03:13.030Z,15.02
2023-01-22T22:07:30.145Z,14.02
2023-01-22T22:11:47.677Z,15.50
2023-01-22T22:16:07.272Z,13.37
2023-01-22T22:20:24.366Z,13.63
2023-01-22T22:24:42.762Z,14.55
2023-01-22T22:28:59.979Z,14.65
2023-01-22T22:33:17.584Z,14.68
2023-01-22T22:37:34.884Z,14.13
2023-01-22T22:41:51.948Z,14.00
2023-01-22T22:46:15.441Z,14.43
2023-01-22T22:50:32.700Z,13.82
2023-01-22T22:54:49.839Z,13.75
2023-01-22T22:59:07.107Z,15.45
2023-01-22T23:03:24.792Z,14.32
2023-01-22T23:07:42.346Z,15.27
2023-01-22T23:11:59.476Z,13.97
2023-01-22T23:16:19.817Z,15.35
2023-01-22T23:20:37.011Z,14.57
2023-01-22T23:24:54.155Z,15.10
2023-01-22T23:29:13.653Z,14.07
2023-01-22T23:33:30.946Z,16.13
2023-01-22T23:37:48.335Z,16.77
2023-01-22T23:42:05.434Z,15.67
2023-01-22T23:46:25.356Z,15.95
2023-01-22T23:50:46.039Z,19.63
2023-01-22T23:55:03.675Z,17.95
2023-01-22T23:59:23.401Z,18.95
